sensor_id;sensor_type;location;lat;lon;timestamp;pressure;altitude;pressure_sealevel;temperature;humidity
61361;BME280;47232;47.506;18.936;2022-11-14T00:00:34;99409.05;;;8.13;71.20
61361;BME280;47232;47.506;18.936;2022-11-14T00:03:01;99408.41;;;8.11;71.08
61361;BME280;47232;47.506;18.936;2022-11-14T00:05:27;99403.20;;;8.08;71.00
61361;BME280;47232;47.506;18.936;2022-11-14T00:07:53;99400.73;;;8.04;71.13
61361;BME280;47232;47.506;18.936;2022-11-14T00:10:18;99390.70;;;7.99;71.11
61361;BME280;47232;47.506;18.936;2022-11-14T00:12:44;99392.09;;;7.94;71.30
61361;BME280;47232;47.506;18.936;2022-11-14T00:15:11;99389.02;;;7.89;71.15
61361;BME280;47232;47.506;18.936;2022-11-14T00:17:37;99391.16;;;7.84;71.25
61361;BME280;47232;47.506;18.936;2022-11-14T00:20:03;99385.95;;;7.80;71.15
61361;BME280;47232;47.506;18.936;2022-11-14T00:22:29;99388.86;;;7.79;71.23
61361;BME280;47232;47.506;18.936;2022-11-14T00:24:54;99388.32;;;7.79;71.63
61361;BME280;47232;47.506;18.936;2022-11-14T00:27:20;99395.92;;;7.82;71.64
61361;BME280;47232;47.506;18.936;2022-11-14T00:29:45;99395.73;;;7.88;71.76
61361;BME280;47232;47.506;18.936;2022-11-14T00:32:11;99395.95;;;7.90;71.70
61361;BME280;47232;47.506;18.936;2022-11-14T00:34:36;99394.81;;;7.90;71.74
61361;BME280;47232;47.506;18.936;2022-11-14T00:37:02;99397.81;;;7.91;72.08
61361;BME280;47232;47.506;18.936;2022-11-14T00:39:27;99397.13;;;7.91;72.11
61361;BME280;47232;47.506;18.936;2022-11-14T00:41:52;99395.63;;;7.92;72.17
61361;BME280;47232;47.506;18.936;2022-11-14T00:44:18;99390.80;;;7.91;72.04
61361;BME280;47232;47.506;18.936;2022-11-14T00:46:43;99390.30;;;7.88;72.00
61361;BME280;47232;47.506;18.936;2022-11-14T00:49:09;99386.86;;;7.83;71.81
61361;BME280;47232;47.506;18.936;2022-11-14T00:51:35;99392.02;;;7.79;71.97
61361;BME280;47232;47.506;18.936;2022-11-14T00:54:01;99389.64;;;7.75;71.72
61361;BME280;47232;47.506;18.936;2022-11-14T00:56:27;99390.81;;;7.73;71.61
61361;BME280;47232;47.506;18.936;2022-11-14T00:58:52;99389.10;;;7.74;71.89
61361;BME280;47232;47.506;18.936;2022-11-14T01:01:18;99390.61;;;7.75;72.12
61361;BME280;47232;47.506;18.936;2022-11-14T01:03:47;99388.73;;;7.79;72.18
61361;BME280;47232;47.506;18.936;2022-11-14T01:06:13;99380.73;;;7.81;72.29
61361;BME280;47232;47.506;18.936;2022-11-14T01:08:40;99386.27;;;7.84;72.12
61361;BME280;47232;47.506;18.936;2022-11-14T01:11:11;99382.62;;;7.85;72.06
61361;BME280;47232;47.506;18.936;2022-11-14T01:13:38;99378.88;;;7.85;72.10
61361;BME280;47232;47.506;18.936;2022-11-14T01:16:04;99376.41;;;7.85;72.41
61361;BME280;47232;47.506;18.936;2022-11-14T01:18:30;99375.83;;;7.83;72.32
61361;BME280;47232;47.506;18.936;2022-11-14T01:20:55;99368.46;;;7.81;72.36
61361;BME280;47232;47.506;18.936;2022-11-14T01:23:21;99364.82;;;7.80;72.46
61361;BME280;47232;47.506;18.936;2022-11-14T01:25:47;99361.18;;;7.79;72.47
61361;BME280;47232;47.506;18.936;2022-11-14T01:28:15;99360.32;;;7.77;72.55
61361;BME280;47232;47.506;18.936;2022-11-14T01:30:41;99360.80;;;7.76;72.65
61361;BME280;47232;47.506;18.936;2022-11-14T01:33:06;99362.58;;;7.78;72.83
61361;BME280;47232;47.506;18.936;2022-11-14T01:35:33;99360.75;;;7.82;72.82
61361;BME280;47232;47.506;18.936;2022-11-14T01:37:59;99358.77;;;7.89;72.92
61361;BME280;47232;47.506;18.936;2022-11-14T01:40:25;99359.73;;;7.92;73.05
61361;BME280;47232;47.506;18.936;2022-11-14T01:53:42;99351.21;;;7.90;72.77
61361;BME280;47232;47.506;18.936;2022-11-14T01:56:10;99344.77;;;7.87;72.91
61361;BME280;47232;47.506;18.936;2022-11-14T01:58:41;99345.69;;;7.83;73.07
61361;BME280;47232;47.506;18.936;2022-11-14T02:01:08;99341.13;;;7.79;73.03
61361;BME280;47232;47.506;18.936;2022-11-14T02:03:39;99338.55;;;7.77;72.77
61361;BME280;47232;47.506;18.936;2022-11-14T02:06:06;99335.66;;;7.75;73.00
61361;BME280;47232;47.506;18.936;2022-11-14T02:08:33;99333.08;;;7.71;73.49
61361;BME280;47232;47.506;18.936;2022-11-14T02:10:59;99334.80;;;7.71;73.46
61361;BME280;47232;47.506;18.936;2022-11-14T02:13:24;99335.54;;;7.72;73.75
61361;BME280;47232;47.506;18.936;2022-11-14T02:15:50;99335.16;;;7.74;73.67
61361;BME280;47232;47.506;18.936;2022-11-14T02:18:16;99340.95;;;7.77;73.80
61361;BME280;47232;47.506;18.936;2022-11-14T02:20:41;99341.88;;;7.80;73.84
61361;BME280;47232;47.506;18.936;2022-11-14T02:23:10;99340.69;;;7.82;73.77
61361;BME280;47232;47.506;18.936;2022-11-14T02:25:37;99344.45;;;7.80;73.23
61361;BME280;47232;47.506;18.936;2022-11-14T02:28:03;99346.17;;;7.79;73.51
61361;BME280;47232;47.506;18.936;2022-11-14T02:30:29;99341.92;;;7.78;73.36
61361;BME280;47232;47.506;18.936;2022-11-14T02:32:54;99341.49;;;7.74;73.37
61361;BME280;47232;47.506;18.936;2022-11-14T02:35:19;99338.54;;;7.70;73.38
61361;BME280;47232;47.506;18.936;2022-11-14T02:37:45;99337.41;;;7.68;73.23
61361;BME280;47232;47.506;18.936;2022-11-14T02:40:11;99337.03;;;7.66;73.17
61361;BME280;47232;47.506;18.936;2022-11-14T02:42:36;99336.65;;;7.66;73.32
61361;BME280;47232;47.506;18.936;2022-11-14T02:45:02;99339.08;;;7.67;73.47
61361;BME280;47232;47.506;18.936;2022-11-14T02:47:28;99338.64;;;7.70;73.58
61361;BME280;47232;47.506;18.936;2022-11-14T02:49:53;99341.48;;;7.72;73.57
61361;BME280;47232;47.506;18.936;2022-11-14T02:52:19;99343.00;;;7.76;73.85
61361;BME280;47232;47.506;18.936;2022-11-14T02:54:44;99343.16;;;7.77;73.71
61361;BME280;47232;47.506;18.936;2022-11-14T02:57:10;99339.89;;;7.75;73.39
61361;BME280;47232;47.506;18.936;2022-11-14T02:59:35;99339.46;;;7.73;73.20
61361;BME280;47232;47.506;18.936;2022-11-14T03:02:00;99336.88;;;7.70;73.17
61361;BME280;47232;47.506;18.936;2022-11-14T03:04:28;99338.11;;;7.66;73.24
61361;BME280;47232;47.506;18.936;2022-11-14T03:06:54;99333.55;;;7.60;73.24
61361;BME280;47232;47.506;18.936;2022-11-14T03:09:19;99331.92;;;7.55;73.19
61361;BME280;47232;47.506;18.936;2022-11-14T03:11:46;99331.86;;;7.50;73.40
61361;BME280;47232;47.506;18.936;2022-11-14T03:14:11;99328.26;;;7.46;73.53
61361;BME280;47232;47.506;18.936;2022-11-14T03:16:37;99326.60;;;7.46;73.52
61361;BME280;47232;47.506;18.936;2022-11-14T03:19:02;99324.40;;;7.46;73.37
61361;BME280;47232;47.506;18.936;2022-11-14T03:21:28;99329.98;;;7.46;73.59
61361;BME280;47232;47.506;18.936;2022-11-14T03:23:53;99325.92;;;7.47;73.54
61361;BME280;47232;47.506;18.936;2022-11-14T03:26:19;99329.83;;;7.49;73.73
61361;BME280;47232;47.506;18.936;2022-11-14T03:28:44;99325.80;;;7.50;73.80
61361;BME280;47232;47.506;18.936;2022-11-14T03:31:11;99323.95;;;7.52;74.06
61361;BME280;47232;47.506;18.936;2022-11-14T03:33:37;99324.63;;;7.53;73.99
61361;BME280;47232;47.506;18.936;2022-11-14T03:36:04;99318.95;;;7.51;73.85
61361;BME280;47232;47.506;18.936;2022-11-14T03:38:31;99316.05;;;7.50;73.56
61361;BME280;47232;47.506;18.936;2022-11-14T03:40:58;99319.20;;;7.47;73.57
61361;BME280;47232;47.506;18.936;2022-11-14T03:43:24;99321.23;;;7.44;73.82
61361;BME280;47232;47.506;18.936;2022-11-14T03:45:50;99317.36;;;7.40;73.80
61361;BME280;47232;47.506;18.936;2022-11-14T03:48:15;99314.27;;;7.35;73.62
61361;BME280;47232;47.506;18.936;2022-11-14T03:50:42;99319.38;;;7.31;73.46
61361;BME280;47232;47.506;18.936;2022-11-14T03:53:09;99317.63;;;7.31;73.74
61361;BME280;47232;47.506;18.936;2022-11-14T03:55:34;99312.96;;;7.31;73.72
61361;BME280;47232;47.506;18.936;2022-11-14T03:58:00;99312.53;;;7.34;73.89
61361;BME280;47232;47.506;18.936;2022-11-14T04:00:25;99312.38;;;7.35;73.76
61361;BME280;47232;47.506;18.936;2022-11-14T04:02:54;99309.64;;;7.34;73.63
61361;BME280;47232;47.506;18.936;2022-11-14T04:05:20;99306.85;;;7.33;73.77
61361;BME280;47232;47.506;18.936;2022-11-14T04:07:45;99303.32;;;7.32;73.90
61361;BME280;47232;47.506;18.936;2022-11-14T04:10:10;99302.02;;;7.30;73.80
61361;BME280;47232;47.506;18.936;2022-11-14T04:12:36;99300.63;;;7.27;74.21
61361;BME280;47232;47.506;18.936;2022-11-14T04:15:01;99300.30;;;7.26;74.14
61361;BME280;47232;47.506;18.936;2022-11-14T04:17:27;99297.63;;;7.24;74.17
61361;BME280;47232;47.506;18.936;2022-11-14T04:19:52;99301.73;;;7.22;74.41
61361;BME280;47232;47.506;18.936;2022-11-14T04:22:17;99305.06;;;7.21;74.28
61361;BME280;47232;47.506;18.936;2022-11-14T04:24:43;99305.33;;;7.22;74.69
61361;BME280;47232;47.506;18.936;2022-11-14T04:27:08;99302.29;;;7.25;74.80
61361;BME280;47232;47.506;18.936;2022-11-14T04:29:34;99300.52;;;7.30;75.06
61361;BME280;47232;47.506;18.936;2022-11-14T04:31:59;99301.61;;;7.35;75.05
61361;BME280;47232;47.506;18.936;2022-11-14T04:34:24;99296.90;;;7.38;75.08
61361;BME280;47232;47.506;18.936;2022-11-14T04:36:50;99295.13;;;7.42;75.01
61361;BME280;47232;47.506;18.936;2022-11-14T04:39:16;99293.27;;;7.44;75.01
61361;BME280;47232;47.506;18.936;2022-11-14T04:41:42;99288.06;;;7.43;74.52
61361;BME280;47232;47.506;18.936;2022-11-14T04:44:07;99284.63;;;7.39;74.30
61361;BME280;47232;47.506;18.936;2022-11-14T04:46:33;99284.30;;;7.35;74.04
61361;BME280;47232;47.506;18.936;2022-11-14T04:48:58;99280.55;;;7.29;73.95
61361;BME280;47232;47.506;18.936;2022-11-14T04:51:24;99277.37;;;7.22;74.07
61361;BME280;47232;47.506;18.936;2022-11-14T04:53:49;99281.75;;;7.14;74.20
61361;BME280;47232;47.506;18.936;2022-11-14T04:56:14;99268.60;;;7.09;74.41
61361;BME280;47232;47.506;18.936;2022-11-14T04:58:40;99268.23;;;7.06;74.36
61361;BME280;47232;47.506;18.936;2022-11-14T05:01:09;99269.29;;;7.06;74.35
61361;BME280;47232;47.506;18.936;2022-11-14T05:03:36;99262.43;;;7.07;74.24
61361;BME280;47232;47.506;18.936;2022-11-14T05:06:02;99263.46;;;7.07;74.02
61361;BME280;47232;47.506;18.936;2022-11-14T05:08:28;99257.94;;;7.07;74.14
61361;BME280;47232;47.506;18.936;2022-11-14T05:10:53;99260.24;;;7.07;74.82
61361;BME280;47232;47.506;18.936;2022-11-14T05:13:19;99253.34;;;7.06;74.54
61361;BME280;47232;47.506;18.936;2022-11-14T05:15:44;99251.77;;;7.06;74.72
61361;BME280;47232;47.506;18.936;2022-11-14T05:18:10;99252.52;;;7.05;74.46
61361;BME280;47232;47.506;18.936;2022-11-14T05:20:35;99252.47;;;7.03;74.66
61361;BME280;47232;47.506;18.936;2022-11-14T05:23:01;99248.61;;;7.01;74.85
61361;BME280;47232;47.506;18.936;2022-11-14T05:25:26;99250.53;;;6.99;75.28
61361;BME280;47232;47.506;18.936;2022-11-14T05:27:52;99257.17;;;6.97;75.28
61361;BME280;47232;47.506;18.936;2022-11-14T05:30:18;99258.78;;;6.99;75.38
61361;BME280;47232;47.506;18.936;2022-11-14T05:32:43;99261.84;;;7.01;75.84
61361;BME280;47232;47.506;18.936;2022-11-14T05:35:09;99261.20;;;7.03;75.89
61361;BME280;47232;47.506;18.936;2022-11-14T05:37:35;99262.07;;;7.07;76.10
61361;BME280;47232;47.506;18.936;2022-11-14T05:40:00;99260.73;;;7.09;76.09
61361;BME280;47232;47.506;18.936;2022-11-14T05:42:30;99263.63;;;7.09;75.92
61361;BME280;47232;47.506;18.936;2022-11-14T05:45:00;99257.73;;;7.10;76.07
61361;BME280;47232;47.506;18.936;2022-11-14T05:47:26;99257.08;;;7.10;76.23
61361;BME280;47232;47.506;18.936;2022-11-14T05:49:51;99255.54;;;7.09;75.64
61361;BME280;47232;47.506;18.936;2022-11-14T05:52:17;99253.70;;;7.06;75.52
61361;BME280;47232;47.506;18.936;2022-11-14T05:54:42;99259.33;;;7.04;75.81
61361;BME280;47232;47.506;18.936;2022-11-14T05:57:08;99262.20;;;7.01;75.82
61361;BME280;47232;47.506;18.936;2022-11-14T05:59:33;99259.96;;;7.00;76.11
61361;BME280;47232;47.506;18.936;2022-11-14T06:01:58;99261.10;;;7.04;76.03
61361;BME280;47232;47.506;18.936;2022-11-14T06:04:24;99262.44;;;7.06;76.06
61361;BME280;47232;47.506;18.936;2022-11-14T06:06:49;99268.55;;;7.10;75.99
61361;BME280;47232;47.506;18.936;2022-11-14T06:09:15;99268.99;;;7.15;76.53
61361;BME280;47232;47.506;18.936;2022-11-14T06:11:40;99275.61;;;7.19;76.46
61361;BME280;47232;47.506;18.936;2022-11-14T06:14:06;99273.39;;;7.22;76.01
61361;BME280;47232;47.506;18.936;2022-11-14T06:16:31;99279.57;;;7.24;76.08
61361;BME280;47232;47.506;18.936;2022-11-14T06:18:57;99283.49;;;7.27;76.29
61361;BME280;47232;47.506;18.936;2022-11-14T06:21:24;99291.95;;;7.28;76.07
61361;BME280;47232;47.506;18.936;2022-11-14T06:23:50;99290.77;;;7.28;76.01
61361;BME280;47232;47.506;18.936;2022-11-14T06:26:27;99291.63;;;7.26;75.84
61361;BME280;47232;47.506;18.936;2022-11-14T06:28:56;99297.40;;;7.23;75.89
61361;BME280;47232;47.506;18.936;2022-11-14T06:31:22;99293.02;;;7.25;75.66
61361;BME280;47232;47.506;18.936;2022-11-14T06:33:49;99292.39;;;7.29;75.76
61361;BME280;47232;47.506;18.936;2022-11-14T06:36:15;99294.86;;;7.35;75.83
61361;BME280;47232;47.506;18.936;2022-11-14T06:38:42;99294.82;;;7.40;75.95
61361;BME280;47232;47.506;18.936;2022-11-14T06:41:16;99294.88;;;7.45;75.52
61361;BME280;47232;47.506;18.936;2022-11-14T06:43:45;99293.16;;;7.49;75.83
61361;BME280;47232;47.506;18.936;2022-11-14T06:46:14;99293.92;;;7.52;75.89
61361;BME280;47232;47.506;18.936;2022-11-14T06:48:41;99295.48;;;7.56;76.01
61361;BME280;47232;47.506;18.936;2022-11-14T06:51:06;99297.20;;;7.58;75.90
61361;BME280;47232;47.506;18.936;2022-11-14T06:53:33;99297.14;;;7.61;75.84
61361;BME280;47232;47.506;18.936;2022-11-14T06:58:29;99294.73;;;7.66;75.86
61361;BME280;47232;47.506;18.936;2022-11-14T07:00:55;99287.61;;;7.68;75.68
61361;BME280;47232;47.506;18.936;2022-11-14T07:03:21;99292.42;;;7.72;75.78
61361;BME280;47232;47.506;18.936;2022-11-14T07:05:47;99293.45;;;7.78;75.90
61361;BME280;47232;47.506;18.936;2022-11-14T07:08:13;99302.30;;;7.86;76.12
61361;BME280;47232;47.506;18.936;2022-11-14T07:10:42;99307.71;;;7.96;76.09
61361;BME280;47232;47.506;18.936;2022-11-14T07:13:07;99309.11;;;8.05;76.09
61361;BME280;47232;47.506;18.936;2022-11-14T07:15:34;99310.06;;;8.10;76.11
61361;BME280;47232;47.506;18.936;2022-11-14T07:18:00;99310.44;;;8.19;76.15
61361;BME280;47232;47.506;18.936;2022-11-14T07:20:25;99309.63;;;8.25;75.91
61361;BME280;47232;47.506;18.936;2022-11-14T07:22:50;99310.36;;;8.31;75.90
61361;BME280;47232;47.506;18.936;2022-11-14T07:25:16;99305.86;;;8.36;75.73
61361;BME280;47232;47.506;18.936;2022-11-14T07:27:41;99294.65;;;8.41;75.79
61361;BME280;47232;47.506;18.936;2022-11-14T07:30:07;99291.64;;;8.44;75.67
61361;BME280;47232;47.506;18.936;2022-11-14T07:32:32;99291.20;;;8.48;76.02
61361;BME280;47232;47.506;18.936;2022-11-14T07:34:58;99290.98;;;8.52;75.84
61361;BME280;47232;47.506;18.936;2022-11-14T07:37:23;99289.34;;;8.59;75.75
61361;BME280;47232;47.506;18.936;2022-11-14T07:39:49;99288.03;;;8.67;75.49
61361;BME280;47232;47.506;18.936;2022-11-14T07:42:16;99291.59;;;8.76;75.65
61361;BME280;47232;47.506;18.936;2022-11-14T07:44:42;99293.60;;;8.85;75.69
61361;BME280;47232;47.506;18.936;2022-11-14T07:47:07;99293.99;;;8.93;75.41
61361;BME280;47232;47.506;18.936;2022-11-14T07:49:33;99294.98;;;9.00;75.27
61361;BME280;47232;47.506;18.936;2022-11-14T07:51:58;99290.58;;;9.10;75.22
61361;BME280;47232;47.506;18.936;2022-11-14T07:54:24;99293.65;;;9.18;74.78
61361;BME280;47232;47.506;18.936;2022-11-14T07:56:50;99291.68;;;9.25;74.50
61361;BME280;47232;47.506;18.936;2022-11-14T07:59:15;99295.13;;;9.33;74.39
61361;BME280;47232;47.506;18.936;2022-11-14T08:01:43;99295.08;;;9.41;74.19
61361;BME280;47232;47.506;18.936;2022-11-14T08:04:08;99296.85;;;9.50;73.93
61361;BME280;47232;47.506;18.936;2022-11-14T08:06:34;99294.09;;;9.61;73.75
61361;BME280;47232;47.506;18.936;2022-11-14T08:08:59;99294.71;;;9.71;73.47
61361;BME280;47232;47.506;18.936;2022-11-14T08:11:25;99297.35;;;9.84;73.24
61361;BME280;47232;47.506;18.936;2022-11-14T08:14:09;99292.56;;;9.97;72.78
61361;BME280;47232;47.506;18.936;2022-11-14T08:16:34;99287.56;;;10.09;72.55
61361;BME280;47232;47.506;18.936;2022-11-14T08:19:00;99289.44;;;10.22;72.10
61361;BME280;47232;47.506;18.936;2022-11-14T08:21:25;99287.63;;;10.33;71.49
61361;BME280;47232;47.506;18.936;2022-11-14T08:23:53;99287.88;;;10.40;71.00
61361;BME280;47232;47.506;18.936;2022-11-14T08:26:18;99280.05;;;10.47;70.98
61361;BME280;47232;47.506;18.936;2022-11-14T08:28:44;99279.45;;;10.59;70.50
61361;BME280;47232;47.506;18.936;2022-11-14T08:31:10;99280.11;;;10.70;70.20
61361;BME280;47232;47.506;18.936;2022-11-14T08:33:38;99275.95;;;10.81;69.90
61361;BME280;47232;47.506;18.936;2022-11-14T08:36:05;99276.77;;;10.93;69.55
61361;BME280;47232;47.506;18.936;2022-11-14T08:38:32;99275.34;;;11.03;69.04
61361;BME280;47232;47.506;18.936;2022-11-14T08:40:59;99273.88;;;11.11;68.54
61361;BME280;47232;47.506;18.936;2022-11-14T08:43:31;99274.31;;;11.19;68.13
61361;BME280;47232;47.506;18.936;2022-11-14T08:45:59;99270.02;;;11.25;67.93
61361;BME280;47232;47.506;18.936;2022-11-14T08:48:25;99267.77;;;11.35;67.67
61361;BME280;47232;47.506;18.936;2022-11-14T08:50:51;99263.62;;;11.49;67.63
61361;BME280;47232;47.506;18.936;2022-11-14T08:53:17;99264.08;;;11.66;67.38
61361;BME280;47232;47.506;18.936;2022-11-14T08:55:49;99257.94;;;11.83;66.92
61361;BME280;47232;47.506;18.936;2022-11-14T08:58:15;99259.52;;;12.02;66.60
61361;BME280;47232;47.506;18.936;2022-11-14T09:00:40;99263.97;;;12.22;66.22
61361;BME280;47232;47.506;18.936;2022-11-14T09:03:10;99262.53;;;12.41;65.71
61361;BME280;47232;47.506;18.936;2022-11-14T09:05:38;99261.48;;;12.59;65.07
61361;BME280;47232;47.506;18.936;2022-11-14T09:08:03;99265.63;;;12.73;64.71
61361;BME280;47232;47.506;18.936;2022-11-14T09:10:29;99268.52;;;12.85;64.35
61361;BME280;47232;47.506;18.936;2022-11-14T09:12:59;99267.89;;;12.94;63.50
61361;BME280;47232;47.506;18.936;2022-11-14T09:15:26;99269.17;;;13.05;63.33
61361;BME280;47232;47.506;18.936;2022-11-14T09:17:53;99275.29;;;13.21;63.04
61361;BME280;47232;47.506;18.936;2022-11-14T09:20:19;99278.39;;;13.33;63.01
61361;BME280;47232;47.506;18.936;2022-11-14T09:22:45;99279.66;;;13.46;63.08
61361;BME280;47232;47.506;18.936;2022-11-14T09:25:11;99267.25;;;13.59;62.17
61361;BME280;47232;47.506;18.936;2022-11-14T09:27:36;99263.22;;;13.70;61.38
61361;BME280;47232;47.506;18.936;2022-11-14T09:30:02;99265.41;;;13.83;60.76
61361;BME280;47232;47.506;18.936;2022-11-14T09:32:28;99263.60;;;13.94;60.36
61361;BME280;47232;47.506;18.936;2022-11-14T09:34:54;99264.83;;;14.11;60.20
61361;BME280;47232;47.506;18.936;2022-11-14T09:37:19;99262.58;;;14.27;59.65
61361;BME280;47232;47.506;18.936;2022-11-14T09:39:44;99256.93;;;14.43;59.14
61361;BME280;47232;47.506;18.936;2022-11-14T09:44:57;99254.08;;;14.65;57.97
61361;BME280;47232;47.506;18.936;2022-11-14T09:47:29;99249.58;;;14.78;57.72
61361;BME280;47232;47.506;18.936;2022-11-14T09:50:06;99245.81;;;14.90;57.23
61361;BME280;47232;47.506;18.936;2022-11-14T09:52:40;99242.84;;;15.04;56.91
61361;BME280;47232;47.506;18.936;2022-11-14T09:57:38;99241.08;;;15.25;56.21
61361;BME280;47232;47.506;18.936;2022-11-14T10:08:01;99231.76;;;15.73;54.29
61361;BME280;47232;47.506;18.936;2022-11-14T10:15:53;99219.10;;;16.17;52.69
61361;BME280;47232;47.506;18.936;2022-11-14T10:18:36;99218.57;;;16.31;52.51
61361;BME280;47232;47.506;18.936;2022-11-14T10:21:37;99213.93;;;16.45;52.07
61361;BME280;47232;47.506;18.936;2022-11-14T10:27:01;99208.02;;;16.76;51.10
61361;BME280;47232;47.506;18.936;2022-11-14T10:29:51;99207.59;;;16.87;50.79
61361;BME280;47232;47.506;18.936;2022-11-14T10:40:43;99197.94;;;17.39;49.66
61361;BME280;47232;47.506;18.936;2022-11-14T10:43:29;99192.02;;;17.54;49.04
61361;BME280;47232;47.506;18.936;2022-11-14T10:48:29;99189.05;;;17.84;48.11
61361;BME280;47232;47.506;18.936;2022-11-14T10:50:59;99191.01;;;17.99;48.08
61361;BME280;47232;47.506;18.936;2022-11-14T10:53:28;99181.67;;;18.18;47.05
61361;BME280;47232;47.506;18.936;2022-11-14T10:55:59;99181.17;;;18.36;47.18
61361;BME280;47232;47.506;18.936;2022-11-14T10:58:24;99181.23;;;18.56;46.70
61361;BME280;47232;47.506;18.936;2022-11-14T11:00:50;99174.34;;;18.71;46.19
61361;BME280;47232;47.506;18.936;2022-11-14T11:03:16;99166.68;;;18.83;45.59
61361;BME280;47232;47.506;18.936;2022-11-14T11:05:49;99165.63;;;18.96;44.67
61361;BME280;47232;47.506;18.936;2022-11-14T11:08:20;99164.93;;;19.07;44.36
61361;BME280;47232;47.506;18.936;2022-11-14T11:11:11;99161.25;;;19.20;44.20
61361;BME280;47232;47.506;18.936;2022-11-14T11:13:57;99161.11;;;19.31;43.92
61361;BME280;47232;47.506;18.936;2022-11-14T11:16:27;99156.18;;;19.45;43.44
61361;BME280;47232;47.506;18.936;2022-11-14T11:18:52;99155.86;;;19.59;43.27
61361;BME280;47232;47.506;18.936;2022-11-14T11:21:20;99151.61;;;19.73;43.01
61361;BME280;47232;47.506;18.936;2022-11-14T11:31:48;99138.30;;;20.25;41.71
61361;BME280;47232;47.506;18.936;2022-11-14T11:34:18;99134.62;;;20.38;41.60
61361;BME280;47232;47.506;18.936;2022-11-14T11:36:54;99131.02;;;20.47;41.15
61361;BME280;47232;47.506;18.936;2022-11-14T11:39:25;99133.28;;;20.57;41.03
61361;BME280;47232;47.506;18.936;2022-11-14T11:41:56;99132.32;;;20.63;40.84
61361;BME280;47232;47.506;18.936;2022-11-14T11:44:32;99131.76;;;20.73;40.69
61361;BME280;47232;47.506;18.936;2022-11-14T11:47:02;99136.52;;;20.83;40.30
61361;BME280;47232;47.506;18.936;2022-11-14T11:52:18;99130.64;;;20.98;39.96
61361;BME280;47232;47.506;18.936;2022-11-14T11:57:27;99125.52;;;21.12;39.53
61361;BME280;47232;47.506;18.936;2022-11-14T12:00:13;99128.04;;;21.20;39.52
61361;BME280;47232;47.506;18.936;2022-11-14T12:02:45;99128.80;;;21.32;39.22
61361;BME280;47232;47.506;18.936;2022-11-14T12:08:02;99115.67;;;21.48;39.01
61361;BME280;47232;47.506;18.936;2022-11-14T12:10:40;99109.36;;;21.59;38.78
61361;BME280;47232;47.506;18.936;2022-11-14T12:21:10;99088.54;;;22.01;37.67
61361;BME280;47232;47.506;18.936;2022-11-14T12:31:58;99086.14;;;22.50;37.05
61361;BME280;47232;47.506;18.936;2022-11-14T12:34:33;99076.35;;;22.57;36.89
61361;BME280;47232;47.506;18.936;2022-11-14T12:37:32;99074.12;;;22.67;36.88
61361;BME280;47232;47.506;18.936;2022-11-14T12:40:28;99072.45;;;22.84;36.70
61361;BME280;47232;47.506;18.936;2022-11-14T12:42:55;99067.39;;;22.99;36.21
61361;BME280;47232;47.506;18.936;2022-11-14T12:50:55;99057.94;;;23.32;35.57
61361;BME280;47232;47.506;18.936;2022-11-14T12:56:20;99054.82;;;23.51;35.14
61361;BME280;47232;47.506;18.936;2022-11-14T13:12:57;99047.30;;;24.84;33.53
61361;BME280;47232;47.506;18.936;2022-11-14T13:15:51;99047.48;;;24.98;32.78
61361;BME280;47232;47.506;18.936;2022-11-14T13:18:50;99044.96;;;25.13;32.87
61361;BME280;47232;47.506;18.936;2022-11-14T13:21:35;99042.64;;;25.36;32.47
61361;BME280;47232;47.506;18.936;2022-11-14T13:24:17;99040.22;;;25.48;31.95
61361;BME280;47232;47.506;18.936;2022-11-14T13:26:51;99039.11;;;25.55;31.62
61361;BME280;47232;47.506;18.936;2022-11-14T13:29:46;99040.23;;;25.62;31.59
61361;BME280;47232;47.506;18.936;2022-11-14T13:35:40;99038.73;;;25.76;30.96
61361;BME280;47232;47.506;18.936;2022-11-14T13:51:25;99019.29;;;26.54;29.21
61361;BME280;47232;47.506;18.936;2022-11-14T13:53:52;99020.20;;;26.62;28.93
61361;BME280;47232;47.506;18.936;2022-11-14T14:10:24;99003.98;;;27.39;27.30
61361;BME280;47232;47.506;18.936;2022-11-14T14:16:02;99004.09;;;27.75;27.04
61361;BME280;47232;47.506;18.936;2022-11-14T14:18:42;99006.27;;;28.12;26.93
61361;BME280;47232;47.506;18.936;2022-11-14T14:24:17;99002.38;;;28.50;26.40
61361;BME280;47232;47.506;18.936;2022-11-14T14:32:14;98997.77;;;28.94;25.55
61361;BME280;47232;47.506;18.936;2022-11-14T14:34:40;98997.73;;;28.90;25.19
61361;BME280;47232;47.506;18.936;2022-11-14T14:37:19;98994.27;;;28.88;24.82
61361;BME280;47232;47.506;18.936;2022-11-14T14:39:59;98994.71;;;28.79;24.78
61361;BME280;47232;47.506;18.936;2022-11-14T14:42:35;98992.19;;;28.60;24.53
61361;BME280;47232;47.506;18.936;2022-11-14T14:45:02;98983.85;;;28.14;25.10
61361;BME280;47232;47.506;18.936;2022-11-14T14:47:38;98980.70;;;27.81;25.42
61361;BME280;47232;47.506;18.936;2022-11-14T14:50:15;98976.14;;;27.42;25.71
61361;BME280;47232;47.506;18.936;2022-11-14T14:52:41;98977.81;;;26.73;26.16
61361;BME280;47232;47.506;18.936;2022-11-14T14:55:19;98976.76;;;25.90;26.73
61361;BME280;47232;47.506;18.936;2022-11-14T14:57:45;98973.79;;;25.21;27.59
61361;BME280;47232;47.506;18.936;2022-11-14T15:00:24;98974.36;;;24.66;28.11
61361;BME280;47232;47.506;18.936;2022-11-14T15:02:54;98967.14;;;23.91;28.91
61361;BME280;47232;47.506;18.936;2022-11-14T15:05:22;98960.92;;;23.17;29.75
61361;BME280;47232;47.506;18.936;2022-11-14T15:07:49;98971.20;;;22.45;30.70
61361;BME280;47232;47.506;18.936;2022-11-14T15:10:21;98971.96;;;21.75;31.58
61361;BME280;47232;47.506;18.936;2022-11-14T15:12:48;98969.64;;;21.06;32.55
61361;BME280;47232;47.506;18.936;2022-11-14T15:15:15;98972.00;;;20.42;33.64
61361;BME280;47232;47.506;18.936;2022-11-14T15:17:43;98970.00;;;19.85;34.61
61361;BME280;47232;47.506;18.936;2022-11-14T15:20:23;98966.55;;;19.30;35.53
61361;BME280;47232;47.506;18.936;2022-11-14T15:25:33;98963.13;;;18.20;37.60
61361;BME280;47232;47.506;18.936;2022-11-14T15:27:58;98965.70;;;17.79;38.29